createdAt,value
2019-02-07T00:00:24.877Z,42.30
2019-02-07T00:02:54.713Z,40.98
2019-02-07T00:05:22.718Z,42.75
2019-02-07T00:07:50.796Z,40.88
2019-02-07T00:10:18.887Z,39.80
2019-02-07T00:12:46.804Z,35.60
2019-02-07T00:15:15.561Z,40.00
2019-02-07T00:17:45.555Z,40.55
2019-02-07T00:20:14.383Z,38.63
2019-02-07T00:22:42.311Z,38.20
2019-02-07T00:25:10.393Z,34.40
2019-02-07T00:27:38.382Z,41.25
2019-02-07T00:30:09.776Z,40.90
2019-02-07T00:32:37.995Z,41.90
2019-02-07T00:35:06.572Z,35.50
2019-02-07T00:37:34.558Z,35.58
2019-02-07T00:40:02.772Z,40.73
2019-02-07T00:42:30.758Z,39.42
2019-02-07T00:44:58.713Z,37.93
2019-02-07T00:47:26.719Z,38.58
2019-02-07T00:49:54.675Z,37.93
2019-02-07T00:52:22.712Z,38.70
2019-02-07T00:54:50.672Z,37.38
2019-02-07T00:57:18.582Z,36.80
2019-02-07T00:59:46.550Z,44.58
2019-02-07T01:02:14.842Z,41.70
2019-02-07T01:04:42.825Z,33.67
2019-02-07T01:07:10.826Z,36.93
2019-02-07T01:09:39.239Z,39.42
2019-02-07T01:12:07.201Z,34.45
2019-02-07T01:14:35.188Z,35.33
2019-02-07T01:17:03.463Z,41.37
2019-02-07T01:19:31.726Z,36.75
2019-02-07T01:21:59.706Z,37.00
2019-02-07T01:24:27.699Z,35.15
2019-02-07T01:26:55.633Z,38.55
2019-02-07T01:29:23.705Z,38.67
2019-02-07T01:31:51.980Z,40.60
2019-02-07T01:34:20.884Z,43.00
2019-02-07T01:36:49.647Z,36.45
2019-02-07T01:39:18.484Z,37.33
2019-02-07T01:41:46.859Z,43.68
2019-02-07T01:44:14.830Z,32.85
2019-02-07T01:46:42.779Z,39.53
2019-02-07T01:49:10.688Z,37.55
2019-02-07T01:51:38.949Z,36.35
2019-02-07T01:54:06.866Z,34.43
2019-02-07T01:56:34.848Z,36.93
2019-02-07T01:59:02.825Z,39.00
2019-02-07T02:01:30.907Z,34.30
2019-02-07T02:03:58.816Z,34.23
2019-02-07T02:06:26.849Z,36.40
2019-02-07T02:08:55.100Z,36.45
2019-02-07T02:11:23.129Z,37.45
2019-02-07T02:13:51.070Z,37.25
2019-02-07T02:16:19.053Z,36.48
2019-02-07T02:18:47.685Z,36.25
2019-02-07T02:21:15.711Z,34.67
2019-02-07T02:23:43.748Z,38.13
2019-02-07T02:26:11.752Z,34.20
2019-02-07T02:31:42.686Z,35.98
2019-02-07T02:34:11.906Z,33.98
2019-02-07T02:36:39.814Z,34.60
2019-02-07T02:39:08.916Z,33.75
2019-02-07T02:41:50.419Z,35.58
2019-02-07T02:44:18.320Z,33.95
2019-02-07T02:46:46.334Z,38.02
2019-02-07T02:49:14.228Z,33.53
2019-02-07T02:51:42.278Z,40.23
2019-02-07T02:54:29.713Z,33.33
2019-02-07T02:56:57.596Z,38.15
2019-02-07T02:59:25.710Z,32.25
2019-02-07T03:02:05.344Z,33.45
2019-02-07T03:04:52.879Z,37.42
2019-02-07T03:07:36.337Z,35.90
2019-02-07T03:10:16.396Z,34.33
2019-02-07T03:13:04.016Z,35.17
2019-02-07T03:15:54.575Z,39.75
2019-02-07T03:18:53.994Z,30.17
2019-02-07T03:21:53.374Z,34.15
2019-02-07T03:24:39.333Z,36.42
2019-02-07T03:27:25.459Z,34.67
2019-02-07T03:30:30.715Z,35.13
2019-02-07T03:33:09.773Z,32.70
2019-02-07T03:36:03.579Z,35.40
2019-02-07T03:38:49.527Z,36.23
2019-02-07T03:41:37.057Z,34.85
2019-02-07T03:44:18.760Z,36.17
2019-02-07T03:47:15.031Z,38.02
2019-02-07T03:50:00.932Z,35.60
2019-02-07T03:52:47.378Z,35.20
2019-02-07T03:55:24.968Z,33.15
2019-02-07T03:58:18.634Z,35.65
2019-02-07T04:01:18.418Z,39.33
2019-02-07T04:04:24.244Z,32.15
2019-02-07T04:07:03.009Z,40.15
2019-02-07T04:10:08.384Z,35.38
2019-02-07T04:13:07.440Z,32.78
2019-02-07T04:16:15.077Z,35.30
2019-02-07T04:18:52.750Z,37.28
2019-02-07T04:21:37.261Z,35.15
2019-02-07T04:24:17.767Z,35.13
2019-02-07T04:26:55.257Z,34.00
2019-02-07T04:29:33.594Z,37.83
2019-02-07T04:32:19.265Z,35.03
2019-02-07T04:35:12.816Z,32.33
2019-02-07T04:37:58.456Z,29.55
2019-02-07T04:40:58.188Z,36.80
2019-02-07T04:43:54.770Z,30.08
2019-02-07T04:46:40.684Z,33.48
2019-02-07T04:49:40.157Z,33.53
2019-02-07T04:52:36.791Z,40.85
2019-02-07T04:55:23.279Z,36.73
2019-02-07T04:58:07.620Z,31.48
2019-02-07T05:00:53.523Z,37.53
2019-02-07T05:03:35.296Z,31.62
2019-02-07T05:06:10.919Z,35.95
2019-02-07T05:09:07.448Z,31.57
2019-02-07T05:11:45.569Z,34.18
2019-02-07T05:14:31.480Z,33.38
2019-02-07T05:17:09.999Z,33.92
2019-02-07T05:19:57.596Z,32.63
2019-02-07T05:22:40.507Z,34.90
2019-02-07T05:25:37.116Z,33.92
2019-02-07T05:28:24.308Z,36.10
2019-02-07T05:31:10.433Z,30.17
2019-02-07T05:33:56.572Z,33.70
2019-02-07T05:36:44.123Z,34.18
2019-02-07T05:39:43.528Z,34.58
2019-02-07T05:42:33.593Z,31.42
2019-02-07T05:45:33.217Z,31.48
2019-02-07T05:48:38.831Z,34.92
2019-02-07T05:51:36.153Z,31.97
2019-02-07T05:54:35.801Z,33.58
2019-02-07T05:57:13.706Z,39.75
2019-02-07T05:59:59.832Z,28.75
2019-02-07T06:02:41.214Z,34.55
2019-02-07T06:05:22.904Z,31.25
2019-02-07T06:08:11.070Z,34.88
2019-02-07T06:10:49.064Z,32.65
2019-02-07T06:13:55.727Z,31.23
2019-02-07T06:16:41.735Z,31.45
2019-02-07T06:19:31.994Z,25.72
2019-02-07T06:22:18.148Z,33.35
2019-02-07T06:25:04.304Z,37.10
2019-02-07T06:27:58.352Z,34.00
2019-02-07T06:30:42.434Z,33.65
2019-02-07T06:33:30.127Z,30.08
2019-02-07T06:36:15.767Z,33.75
2019-02-07T06:39:09.189Z,29.52
2019-02-07T06:42:14.650Z,34.85
2019-02-07T06:45:20.287Z,31.68
2019-02-07T06:48:06.997Z,30.72
2019-02-07T06:50:47.432Z,36.63
2019-02-07T06:53:52.905Z,33.10
2019-02-07T06:56:43.085Z,38.17
2019-02-07T06:59:30.645Z,33.88
2019-02-07T07:02:18.178Z,36.20
2019-02-07T07:05:05.691Z,39.20
2019-02-07T07:07:51.881Z,36.23
2019-02-07T07:10:39.530Z,34.58
2019-02-07T07:13:39.193Z,40.30
2019-02-07T07:16:22.041Z,34.73
2019-02-07T07:19:29.065Z,35.88
2019-02-07T07:22:21.525Z,32.78
2019-02-07T07:25:12.181Z,36.40
2019-02-07T07:27:59.917Z,36.83
2019-02-07T07:30:46.369Z,34.27
2019-02-07T07:33:33.848Z,33.63
2019-02-07T07:36:23.594Z,36.90
2019-02-07T07:39:14.419Z,38.20
2019-02-07T07:42:19.793Z,36.98
2019-02-07T07:45:26.625Z,36.48
2019-02-07T07:48:11.041Z,33.33
2019-02-07T07:50:57.013Z,38.92
2019-02-07T07:53:59.574Z,39.58
2019-02-07T07:56:45.503Z,35.43
2019-02-07T07:59:42.015Z,41.18
2019-02-07T08:02:30.100Z,37.67
2019-02-07T08:05:23.439Z,37.60
2019-02-07T08:08:23.645Z,40.40
2019-02-07T08:11:00.295Z,41.85
2019-02-07T08:13:48.854Z,36.00
2019-02-07T08:16:36.462Z,31.73
2019-02-07T08:19:23.297Z,34.23
2019-02-07T08:22:13.917Z,40.35
2019-02-07T08:25:02.525Z,37.38
2019-02-07T08:27:48.890Z,39.33
2019-02-07T08:30:36.706Z,41.68
2019-02-07T08:33:26.998Z,40.33
2019-02-07T08:36:07.234Z,41.20
2019-02-07T08:39:03.933Z,39.27
2019-02-07T08:41:51.601Z,37.80
2019-02-07T08:44:38.239Z,40.67
2019-02-07T08:47:35.015Z,44.95
2019-02-07T08:50:26.760Z,37.40
2019-02-07T08:53:03.419Z,36.23
2019-02-07T08:55:57.022Z,42.50
2019-02-07T08:59:02.415Z,43.40
2019-02-07T09:01:55.856Z,47.03
2019-02-07T09:04:42.110Z,42.48
2019-02-07T09:07:35.520Z,43.95
2019-02-07T09:10:44.708Z,44.13
2019-02-07T09:13:47.302Z,38.83
2019-02-07T09:16:31.962Z,46.83
2019-02-07T09:19:29.437Z,50.52
2019-02-07T09:22:23.962Z,46.13
2019-02-07T09:25:10.098Z,44.18
2019-02-07T09:28:10.001Z,39.20
2019-02-07T09:31:06.234Z,46.28
2019-02-07T09:33:52.508Z,47.15
2019-02-07T09:36:40.132Z,44.30
2019-02-07T09:39:37.035Z,48.23
2019-02-07T09:42:16.579Z,43.28
2019-02-07T09:44:57.376Z,48.08
2019-02-07T09:47:43.412Z,46.05
2019-02-07T09:50:29.516Z,46.05
2019-02-07T09:53:10.327Z,51.88
2019-02-07T09:56:06.907Z,53.48
2019-02-07T09:58:57.239Z,45.85
2019-02-07T10:01:59.885Z,53.23
2019-02-07T10:04:38.058Z,57.10
2019-02-07T10:07:16.518Z,58.85
2019-02-07T10:10:03.989Z,55.67
2019-02-07T10:12:57.731Z,48.25
2019-02-07T10:15:50.033Z,48.85
2019-02-07T10:18:55.529Z,54.50
2019-02-07T10:21:41.762Z,54.45
2019-02-07T10:24:27.712Z,47.93
2019-02-07T10:27:15.501Z,59.80
2019-02-07T10:30:08.837Z,56.48
2019-02-07T10:32:54.883Z,50.83
2019-02-07T10:35:34.057Z,58.02
2019-02-07T10:38:21.964Z,64.15
2019-02-07T10:41:14.796Z,50.33
2019-02-07T10:44:11.775Z,50.45
2019-02-07T10:47:00.546Z,54.53
2019-02-07T10:49:46.496Z,54.18
2019-02-07T10:52:33.119Z,48.52
2019-02-07T10:55:29.461Z,50.20
2019-02-07T10:58:25.581Z,55.12
2019-02-07T11:01:25.128Z,53.28
2019-02-07T11:04:20.250Z,45.40
2019-02-07T11:07:08.392Z,50.88
2019-02-07T11:09:48.499Z,47.27
2019-02-07T11:12:40.358Z,55.88
2019-02-07T11:15:37.847Z,46.45
2019-02-07T11:18:24.145Z,52.88
2019-02-07T11:21:10.647Z,46.35
2019-02-07T11:23:56.739Z,43.65
2019-02-07T11:26:47.497Z,53.28
2019-02-07T11:29:23.984Z,48.50
2019-02-07T11:32:11.493Z,45.92
2019-02-07T11:35:02.379Z,42.65
2019-02-07T11:37:44.927Z,48.92
2019-02-07T11:40:47.937Z,47.78
2019-02-07T11:43:44.660Z,45.17
2019-02-07T11:46:37.573Z,41.23
2019-02-07T11:49:27.909Z,40.40
2019-02-07T11:52:27.882Z,43.63
2019-02-07T11:55:07.335Z,43.68
2019-02-07T11:57:56.564Z,44.50
2019-02-07T12:00:43.540Z,45.25
2019-02-07T12:03:29.529Z,43.38
2019-02-07T12:06:09.821Z,45.65
2019-02-07T12:09:09.460Z,44.63
2019-02-07T12:11:55.125Z,55.17
2019-02-07T12:14:37.413Z,41.53
2019-02-07T12:17:24.133Z,47.67
2019-02-07T12:20:08.325Z,42.08
2019-02-07T12:22:58.430Z,45.28
2019-02-07T12:25:49.045Z,45.60
2019-02-07T12:28:44.487Z,45.03
2019-02-07T12:31:26.905Z,50.80
2019-02-07T12:34:20.269Z,40.45
2019-02-07T12:37:07.906Z,43.25
2019-02-07T12:40:07.896Z,45.40
2019-02-07T12:42:45.291Z,43.42
2019-02-07T12:45:22.387Z,42.62
2019-02-07T12:48:09.003Z,46.05
2019-02-07T12:50:52.087Z,48.95
2019-02-07T12:53:41.618Z,50.23
2019-02-07T12:56:28.082Z,48.70
2019-02-07T12:59:15.755Z,46.30
2019-02-07T13:02:06.221Z,49.05
2019-02-07T13:04:53.959Z,44.53
2019-02-07T13:07:40.122Z,49.60
2019-02-07T13:10:42.605Z,46.68
2019-02-07T13:13:30.355Z,43.33
2019-02-07T13:16:08.379Z,54.85
2019-02-07T13:18:52.283Z,46.60
2019-02-07T13:21:52.432Z,52.43
2019-02-07T13:24:42.807Z,48.65
2019-02-07T13:27:34.977Z,49.20
2019-02-07T13:30:24.802Z,47.33
2019-02-07T13:33:21.519Z,43.40
2019-02-07T13:36:07.995Z,44.15
2019-02-07T13:39:04.598Z,39.55
2019-02-07T13:41:50.710Z,44.55
2019-02-07T13:44:31.717Z,43.13
2019-02-07T13:47:25.609Z,44.05
2019-02-07T13:50:16.985Z,42.43
2019-02-07T13:52:57.523Z,42.45
2019-02-07T13:55:53.689Z,40.63
2019-02-07T13:58:41.389Z,36.05
2019-02-07T14:01:40.734Z,39.20
2019-02-07T14:04:34.158Z,39.48
2019-02-07T14:07:13.379Z,45.40
2019-02-07T14:09:55.535Z,46.90
2019-02-07T14:12:41.686Z,41.15
2019-02-07T14:15:28.203Z,46.08
2019-02-07T14:18:06.155Z,46.50
2019-02-07T14:20:53.854Z,52.03
2019-02-07T14:23:39.970Z,44.73
2019-02-07T14:26:23.143Z,48.58
2019-02-07T14:29:07.231Z,48.38
2019-02-07T14:32:07.181Z,45.20
2019-02-07T14:34:54.975Z,53.35
2019-02-07T14:37:40.966Z,41.70
2019-02-07T14:40:28.386Z,45.17
2019-02-07T14:43:05.761Z,49.13
2019-02-07T14:46:02.912Z,49.15
2019-02-07T14:48:35.861Z,51.08
2019-02-07T14:51:07.457Z,45.58
2019-02-07T14:53:37.995Z,48.05
2019-02-07T14:56:14.193Z,45.70
2019-02-07T14:58:43.702Z,48.20
2019-02-07T15:01:15.402Z,47.60
2019-02-07T15:03:49.129Z,46.80
2019-02-07T15:06:18.099Z,51.05
2019-02-07T15:08:48.189Z,48.70
2019-02-07T15:11:17.351Z,40.92
2019-02-07T15:13:46.936Z,53.75
2019-02-07T15:16:15.819Z,46.85
2019-02-07T15:18:46.170Z,50.10
2019-02-07T15:21:14.742Z,47.62
2019-02-07T15:23:43.434Z,49.20
2019-02-07T15:26:12.428Z,50.75
2019-02-07T15:28:41.917Z,45.43
2019-02-07T15:31:10.298Z,46.05
2019-02-07T15:33:38.789Z,46.28
2019-02-07T15:36:09.780Z,43.30
2019-02-07T15:38:39.493Z,43.10
2019-02-07T15:41:08.862Z,48.20
2019-02-07T15:43:37.318Z,48.70
2019-02-07T15:46:07.038Z,42.75
2019-02-07T15:48:35.090Z,42.45
2019-02-07T15:51:03.505Z,41.65
2019-02-07T15:53:31.521Z,44.20
2019-02-07T15:55:59.582Z,40.52
2019-02-07T15:58:39.836Z,39.40
2019-02-07T16:01:15.508Z,37.58
2019-02-07T16:04:05.976Z,38.85
2019-02-07T16:06:34.016Z,42.67
2019-02-07T16:09:03.235Z,36.60
2019-02-07T16:11:32.548Z,40.98
2019-02-07T16:14:00.525Z,39.15
2019-02-07T16:16:28.737Z,44.93
2019-02-07T16:18:56.875Z,42.30
2019-02-07T16:21:24.854Z,40.78
2019-02-07T16:23:53.563Z,41.30
2019-02-07T16:26:21.618Z,48.00
2019-02-07T16:28:49.821Z,40.43
2019-02-07T16:31:17.906Z,36.30
2019-02-07T16:33:46.073Z,34.92
2019-02-07T16:36:15.090Z,32.67
2019-02-07T16:38:43.275Z,30.12
2019-02-07T16:41:11.512Z,31.40
2019-02-07T16:43:40.198Z,32.15
2019-02-07T16:46:08.392Z,30.00
2019-02-07T16:48:36.414Z,29.23
2019-02-07T16:51:05.144Z,30.23
2019-02-07T16:53:33.360Z,28.70
2019-02-07T16:56:01.707Z,35.92
2019-02-07T16:58:29.864Z,31.90
2019-02-07T17:00:58.448Z,30.48
2019-02-07T17:03:26.640Z,33.40
2019-02-07T17:05:54.782Z,32.13
2019-02-07T17:08:22.903Z,31.82
2019-02-07T17:10:51.471Z,27.27
2019-02-07T17:13:20.621Z,37.83
2019-02-07T17:15:48.724Z,27.15
2019-02-07T17:18:16.892Z,34.03
2019-02-07T17:20:45.099Z,33.85
2019-02-07T17:23:13.171Z,34.83
2019-02-07T17:25:41.329Z,30.88
2019-02-07T17:28:09.744Z,29.82
2019-02-07T17:30:37.848Z,29.07
2019-02-07T17:33:06.016Z,30.25
2019-02-07T17:35:34.177Z,32.10
2019-02-07T17:38:03.084Z,31.12
2019-02-07T17:40:32.218Z,31.73
2019-02-07T17:43:00.735Z,28.95
2019-02-07T17:45:29.430Z,32.85
2019-02-07T17:47:57.512Z,29.85
2019-02-07T17:50:28.714Z,33.98
2019-02-07T17:52:57.736Z,34.20
2019-02-07T17:55:26.494Z,30.50
2019-02-07T17:57:54.918Z,26.10
2019-02-07T18:00:29.802Z,31.57
2019-02-07T18:02:58.075Z,32.13
2019-02-07T18:05:26.190Z,28.90
2019-02-07T18:07:54.557Z,25.15
2019-02-07T18:10:23.311Z,28.65
2019-02-07T18:12:51.762Z,22.85
2019-02-07T18:15:21.329Z,20.02
2019-02-07T18:17:50.529Z,21.85
2019-02-07T18:20:19.522Z,26.10
2019-02-07T18:22:47.785Z,20.25
2019-02-07T18:25:16.376Z,22.20
2019-02-07T18:27:44.984Z,20.30
2019-02-07T18:30:18.803Z,25.82
2019-02-07T18:32:47.986Z,18.85
2019-02-07T18:35:17.185Z,22.90
2019-02-07T18:37:45.882Z,20.62
2019-02-07T18:40:18.553Z,18.27
2019-02-07T18:42:46.984Z,19.30
2019-02-07T18:45:17.568Z,19.10
2019-02-07T18:47:46.094Z,20.60
2019-02-07T18:50:21.751Z,17.50
2019-02-07T18:52:49.967Z,18.85
2019-02-07T18:55:18.324Z,15.30
2019-02-07T18:57:46.861Z,19.98
2019-02-07T19:00:22.406Z,14.13
2019-02-07T19:02:52.246Z,17.40
2019-02-07T19:05:22.114Z,19.82
2019-02-07T19:07:50.956Z,15.13
2019-02-07T19:10:21.888Z,18.02
2019-02-07T19:12:52.071Z,17.02
2019-02-07T19:15:30.323Z,20.60
2019-02-07T19:17:58.831Z,19.07
2019-02-07T19:20:47.981Z,14.38
2019-02-07T19:23:16.377Z,17.02
2019-02-07T19:25:44.786Z,16.55
2019-02-07T19:28:13.833Z,14.20
2019-02-07T19:30:42.303Z,17.73
2019-02-07T19:33:10.595Z,16.80
2019-02-07T19:35:40.137Z,15.95
2019-02-07T19:38:08.506Z,18.82
2019-02-07T19:40:36.909Z,16.62
2019-02-07T19:43:05.377Z,18.02
2019-02-07T19:45:33.776Z,16.25
2019-02-07T19:48:01.995Z,15.95
2019-02-07T19:50:30.518Z,23.02
2019-02-07T19:52:58.746Z,19.10
2019-02-07T19:55:28.039Z,18.98
2019-02-07T19:57:56.872Z,19.50
2019-02-07T20:00:28.545Z,18.55
2019-02-07T20:02:57.296Z,19.52
2019-02-07T20:05:25.708Z,18.20
2019-02-07T20:07:53.953Z,17.60
2019-02-07T20:10:23.903Z,17.00
2019-02-07T20:12:53.860Z,18.92
2019-02-07T20:15:42.801Z,18.12
2019-02-07T20:18:15.759Z,20.75
2019-02-07T20:20:49.088Z,17.67
2019-02-07T20:23:19.033Z,18.27
2019-02-07T20:25:47.588Z,17.30
2019-02-07T20:28:16.203Z,20.10
2019-02-07T20:33:22.651Z,18.75
2019-02-07T20:35:51.279Z,19.48
2019-02-07T20:38:21.126Z,17.57
2019-02-07T20:40:49.883Z,14.13
2019-02-07T20:43:19.315Z,15.98
2019-02-07T20:45:48.735Z,15.75
2019-02-07T20:48:17.305Z,14.58
2019-02-07T20:50:45.951Z,16.75
2019-02-07T20:53:18.101Z,17.73
2019-02-07T20:55:46.696Z,16.70
2019-02-07T20:58:14.893Z,20.43
2019-02-07T21:00:44.016Z,15.93
2019-02-07T21:03:12.359Z,17.65
2019-02-07T21:05:41.937Z,16.37
2019-02-07T21:08:10.467Z,18.90
2019-02-07T21:10:39.170Z,15.13
2019-02-07T21:13:18.788Z,14.45
2019-02-07T21:15:47.497Z,18.42
2019-02-07T21:18:15.770Z,16.82
2019-02-07T21:20:44.219Z,15.98
2019-02-07T21:23:12.699Z,18.80
2019-02-07T21:25:44.972Z,18.62
2019-02-07T21:28:16.227Z,19.05
2019-02-07T21:30:44.849Z,15.05
2019-02-07T21:33:13.044Z,18.00
2019-02-07T21:35:45.375Z,25.17
2019-02-07T21:38:17.678Z,18.32
2019-02-07T21:40:47.858Z,21.27
2019-02-07T21:43:16.231Z,18.17
2019-02-07T21:45:50.086Z,11.65
2019-02-07T21:48:24.228Z,16.40
2019-02-07T21:50:54.167Z,18.23
2019-02-07T21:53:22.325Z,12.18
2019-02-07T21:55:50.650Z,15.28
2019-02-07T21:58:19.420Z,14.87
2019-02-07T22:00:47.592Z,16.52
2019-02-07T22:03:16.805Z,15.98
2019-02-07T22:05:45.435Z,21.50
2019-02-07T22:08:14.434Z,14.60
2019-02-07T22:10:43.632Z,16.00
2019-02-07T22:13:13.462Z,15.83
2019-02-07T22:15:41.622Z,17.95
2019-02-07T22:18:10.855Z,13.20
2019-02-07T22:20:40.346Z,15.40
2019-02-07T22:23:08.621Z,17.55
2019-02-07T22:25:38.279Z,12.23
2019-02-07T22:28:07.740Z,14.58
2019-02-07T22:30:36.285Z,12.80
2019-02-07T22:33:05.272Z,15.80
2019-02-07T22:35:40.146Z,13.48
2019-02-07T22:38:09.438Z,12.58
2019-02-07T22:40:40.889Z,14.50
2019-02-07T22:43:10.847Z,16.42
2019-02-07T22:45:40.100Z,13.50
2019-02-07T22:48:12.073Z,16.75
2019-02-07T22:50:42.755Z,13.32
2019-02-07T22:53:10.764Z,12.05
2019-02-07T22:55:38.891Z,15.70
2019-02-07T22:58:08.454Z,13.28
2019-02-07T23:01:46.050Z,16.40
2019-02-07T23:04:15.747Z,12.03
2019-02-07T23:06:43.811Z,15.40
2019-02-07T23:09:14.015Z,13.40
2019-02-07T23:11:42.084Z,10.98
2019-02-07T23:14:11.378Z,14.25
2019-02-07T23:16:40.211Z,17.45
2019-02-07T23:19:08.402Z,19.20
2019-02-07T23:21:36.351Z,12.78
2019-02-07T23:24:05.006Z,13.30
2019-02-07T23:26:33.100Z,14.53
2019-02-07T23:29:01.221Z,15.60
2019-02-07T23:31:29.164Z,14.13
2019-02-07T23:33:58.202Z,12.00
2019-02-07T23:36:26.279Z,14.00
2019-02-07T23:38:54.344Z,9.08
2019-02-07T23:41:22.427Z,16.42
2019-02-07T23:43:50.441Z,13.00
2019-02-07T23:46:18.580Z,12.93
2019-02-07T23:48:46.952Z,9.55
2019-02-07T23:51:14.959Z,12.05
2019-02-07T23:53:43.161Z,9.68
2019-02-07T23:56:11.307Z,11.65
2019-02-07T23:58:39.352Z,12.73
